• Join FlightAware (Why Join?)
  • Login
  • US Flag 
07:04PM EST


 

Airport Tracker/Info


-or-


 

Live Flight TrackerFlight Track Log ✈ AWE1840 ✈ 20-Oct-2013 ✈ KALB - KCLT

Flight Track Log - Related Links

Times and Time Zones

All times are in EDT time to prevent confusion due to time zone crossing. See the AWE1840 flight status page for this flight to view local times or setup timezone preferences in your user account.

Time Position Orientation Groundspeed Altitude Reporting Facility
EDT Latitude Longitude Course Direction KTS MPH feet Rate Location/Type
03:13PM 42.7744 -73.8053 143° Southeast 170 196 1,700  Level Boston Center
03:13PM 42.8078 -73.8222 340° North 193 222 3,100 1,920 Climbing Boston Center
03:14PM 42.8217 -73.8439 311° West 201 231 4,000 2,940 Climbing Boston Center
03:15PM 42.5461 -74.0226 170° South  Level Estimated
03:15PM 42.8631 -73.9122 310° West 218 251 7,400  Level Boston Center
03:16PM 42.4761 -73.9535 144° Southeast  Level FlightAware Approximate
03:16PM 42.9022 -73.9736 311° West 215 247 10,400  Level Boston Center
03:17PM 42.4088 -74.0275 169° South  Level Estimated
03:17PM 42.9419 -74.0339 312° West 214 246 13,100  Level Boston Center
03:18PM 42.3395 -73.9574 143° Southeast  Level FlightAware Approximate
03:18PM 42.9533 -74.1119 281° West 225 259 15,300  Level Boston Center
03:19PM 42.9233 -74.1881 242° Southwest 228 262 17,800 1,920 Climbing Boston Center
03:20PM 42.8589 -74.2075 192° South 271 312 19,300 1,020 Climbing Boston Center
03:21PM 42.7719 -74.1444 152° Southeast 345 397 20,000 780 Climbing Boston Center
03:22PM 42.6692 -74.0875 158° South 388 447 20,900 1,200 Climbing Boston Center
03:23PM 42.5639 -74.0319 159° South 429 494 22,600 1,620 Climbing Boston Center
03:24PM 42.4528 -73.9711 158° South 433 498 24,400 1,620 Climbing Boston Center
03:25PM 42.3156 -73.8950 158° South 447 514 26,000 1,560 Climbing Boston Center
03:26PM 42.1972 -73.8325 159° South 457 526 27,600 960 Climbing Boston Center
03:27PM 42.0806 -73.7683 158° South 457 526 28,000 180 Climbing Boston Center
03:28PM 41.9631 -73.7069 159° South 457 526 28,000  Level Boston Center
03:29PM 41.8464 -73.6436 158° South 455 524 28,000  Level Boston Center
03:30PM 41.7469 -73.5494 145° Southeast 460 529 28,000  Level Boston Center
03:31PM 41.6903 -73.3561 111° Southeast 470 541 28,000  Level Boston Center
03:32PM 41.6003 -73.2803 148° Southeast 398 458 28,000  Level Boston Center
03:33PM 41.5214 -73.3367 208° Southwest 311 358 28,000  Level Boston Center
03:34PM 41.4506 -73.4089 217° Southwest 320 368 28,000  Level Boston Center
03:35PM 41.3728 -73.4872 217° Southwest 348 400 28,000  Level Boston Center
03:36PM 41.2919 -73.5703 218° Southwest 366 421 28,000  Level Boston Center
03:37PM 41.2267 -73.6708 229° Southwest 364 419 28,000  Level Boston Center
03:38PM 41.1653 -73.7744 232° Southwest 361 415 28,000  Level Boston Center
03:39PM 41.0917 -73.8967 231° Southwest 357 411 28,000  Level Boston Center
03:41PM 41.0303 -74.0008 232° Southwest 360 414 28,000  Level Boston Center
03:42PM 40.9686 -74.1042 232° Southwest 360 414 28,000  Level Boston Center
03:43PM 40.9072 -74.2075 232° Southwest 359 413 28,000  Level Boston Center
03:44PM 40.8353 -74.3228 231° Southwest 365 420 28,000  Level New York Center
03:45PM 40.7736 -74.4292 233° Southwest 365 420 28,000  Level New York Center
03:46PM 40.7078 -74.5353 231° Southwest 365 420 28,000  Level New York Center
03:47PM 40.6417 -74.6464 232° Southwest 372 428 28,000  Level New York Center
03:48PM 40.5736 -74.7547 230° Southwest 382 440 28,000  Level New York Center
03:49PM 40.5014 -74.8569 227° Southwest 388 447 28,000  Level New York Center
03:50PM 40.4311 -74.9592 228° Southwest 388 447 28,000  Level New York Center
03:51PM 40.3608 -75.0583 227° Southwest 388 447 28,000  Level New York Center
03:52PM 40.2883 -75.1572 226° Southwest 388 447 28,000  Level New York Center
03:53PM 40.2178 -75.2586 228° Southwest 378 435 28,000  Level New York Center
03:54PM 40.1494 -75.3575 228° Southwest 378 435 28,000  Level New York Center
03:55PM 40.0767 -75.4558 226° Southwest 378 435 28,000  Level New York Center
03:56PM 40.0061 -75.5539 227° Southwest 378 435 28,000  Level New York Center
03:57PM 39.9442 -75.6419 227° Southwest 378 435 28,000  Level New York Center
03:58PM 39.8794 -75.7428 230° Southwest 378 435 28,000  Level New York Center
03:59PM 39.8106 -75.8461 229° Southwest 373 429 28,000  Level New York Center
04:00PM 39.7453 -75.9522 231° Southwest 373 429 28,000  Level New York Center
04:01PM 39.6822 -76.0581 232° Southwest 373 429 28,000  Level New York Center
04:03PM 39.5178 -76.3072 229° Southwest 379 436 28,000  Level Washington Center
04:04PM 39.4503 -76.4086 229° Southwest 379 436 28,000  Level Washington Center
04:05PM 39.3808 -76.5153 230° Southwest 379 436 28,000  Level Washington Center
04:06PM 39.3156 -76.6189 231° Southwest 379 436 28,000  Level Washington Center
04:07PM 39.2564 -76.7094 230° Southwest 374 430 28,000  Level Washington Center
04:08PM 39.1928 -76.8128 232° Southwest 374 430 28,000  Level Washington Center
04:09PM 39.1269 -76.9133 230° Southwest 374 430 28,000  Level Washington Center
04:10PM 39.0592 -77.0164 230° Southwest 374 430 28,000  Level Washington Center
04:11PM 38.9831 -77.1058 222° Southwest 374 430 28,000  Level Washington Center
04:12PM 38.9006 -77.1975 221° Southwest 379 436 28,000  Level Washington Center
04:13PM 38.8203 -77.2836 220° Southwest 384 442 28,000  Level Washington Center
04:14PM 38.7397 -77.3694 220° Southwest 384 442 28,000  Level Washington Center
04:15PM 38.6592 -77.4581 221° Southwest 384 442 28,000  Level Washington Center
04:16PM 38.5786 -77.5464 221° Southwest 384 442 28,000  Level Washington Center
04:17PM 38.5000 -77.6344 221° Southwest 384 442 28,000  Level Washington Center
04:18PM 38.4214 -77.7169 219° Southwest 384 442 28,000  Level Washington Center
04:19PM 38.3428 -77.7994 219° Southwest 384 442 28,000  Level Washington Center
04:20PM 38.2703 -77.8794 221° Southwest 367 422 28,000  Level Washington Center
04:21PM 38.1914 -77.9642 220° Southwest 356 410 28,000  Level Washington Center
04:22PM 38.1147 -78.0436 219° Southwest 351 404 28,000  Level Washington Center
04:23PM 38.0422 -78.1231 221° Southwest 351 404 28,000  Level Washington Center
04:24PM 37.9800 -78.2050 226° Southwest 344 396 28,000  Level Washington Center
04:25PM 37.9239 -78.2875 229° Southwest 338 389 28,000  Level Washington Center
04:26PM 37.8614 -78.3772 229° Southwest 343 395 28,000  Level Washington Center
04:27PM 37.7967 -78.4694 228° Southwest 348 400 28,000  Level Washington Center
04:28PM 37.7339 -78.5617 229° Southwest 348 400 28,000  Level Washington Center
04:29PM 37.6628 -78.6611 228° Southwest 348 400 28,000  Level Washington Center
04:30PM 37.5997 -78.7503 228° Southwest 348 400 28,000  Level Washington Center
04:31PM 37.5369 -78.8419 229° Southwest 348 400 28,000  Level Washington Center
04:32PM 37.4719 -78.9308 227° Southwest 348 400 28,000  Level Washington Center
04:33PM 37.4067 -79.0222 228° Southwest 353 406 28,000  Level Washington Center
04:34PM 37.3458 -79.1031 227° Southwest 353 406 28,000  Level Washington Center
04:35PM 37.2828 -79.1942 229° Southwest 353 406 28,000  Level Washington Center
04:36PM 37.2072 -79.2739 220° Southwest 358 412 28,000  Level Washington Center
04:37PM 37.1239 -79.3431 214° Southwest 358 412 28,000  Level Washington Center
04:38PM 37.0403 -79.4117 213° Southwest 363 418 28,000  Level Washington Center
04:39PM 36.9481 -79.4903 214° Southwest 368 423 28,000  Level Washington Center
04:40PM 36.8644 -79.5589 213° Southwest 368 423 28,000  Level Washington Center
04:41PM 36.7808 -79.6244 212° Southwest 368 423 28,000  Level Washington Center
04:42PM 36.6950 -79.6978 214° Southwest 368 423 28,000  Level Washington Center
04:43PM 36.6092 -79.7656 212° Southwest 368 423 28,000  Level Washington Center
04:44PM 36.5444 -79.8164 212° Southwest 363 418 28,000  Level Atlanta Center
04:45PM 36.4592 -79.8828 212° Southwest 356 410 28,000 -240 Level Atlanta Center
04:46PM 36.3842 -79.9461 214° Southwest 356 410 27,600 -1,020 Descending Atlanta Center
04:47PM 36.3008 -80.0122 213° Southwest 356 410 26,000 -1,200 Descending Atlanta Center
04:48PM 36.2219 -80.0831 216° Southwest 356 410 25,300 -1,500 Descending Atlanta Center
04:49PM 36.1428 -80.1511 215° Southwest 356 410 23,100 -1,200 Descending Atlanta Center
04:50PM 36.0594 -80.2219 215° Southwest 345 397 23,000 -1,080 Descending Atlanta Center
04:51PM 35.9844 -80.2897 216° Southwest 339 390 21,000 -1,800 Descending Atlanta Center
04:52PM 35.9172 -80.3464 214° Southwest 339 390 19,400 -1,920 Descending Atlanta Center
04:52PM 35.8947 -80.3656 215° Southwest 310 357 18,700 -2,040 Descending Atlanta Center
04:53PM 35.8319 -80.4222 216° Southwest 293 337 17,100 -1,020 Descending Atlanta Center
04:54PM 35.7808 -80.4603 211° Southwest 305 351 16,900 -120 Descending Atlanta Center
04:54PM 35.7625 -80.4789 219° Southwest 296 341 17,000 -900 Climbing Atlanta Center
04:55PM 35.7117 -80.5194 213° Southwest 289 333 16,000 -1,020 Descending Atlanta Center
04:55PM 35.7017 -80.5328 227° Southwest 275 316 16,000 -240 Level Atlanta Center
04:56PM 35.6442 -80.5736 210° Southwest 289 333 15,800 -540 Descending Atlanta Center
04:56PM 35.6425 -80.5814 255° West 276 318 15,500 -1,920 Descending Atlanta Center
04:57PM 35.5811 -80.6272 211° Southwest 284 327 13,900 -1,920 Descending Atlanta Center
04:57PM 35.5669 -80.6431 222° Southwest 276 318 13,400 -900 Descending Atlanta Center
04:58PM 35.5200 -80.6783 211° Southwest 278 320 13,000 -420 Descending Atlanta Center
04:58PM 35.5058 -80.6967 226° Southwest 272 313 13,000  Level Atlanta Center
04:59PM 35.4567 -80.7294 209° Southwest 278 320 13,000  Level Atlanta Center
04:59PM 35.4444 -80.7450 226° Southwest 270 311 13,000 -1,140 Level Atlanta Center
05:00PM 35.3956 -80.7803 210° Southwest 278 320 11,900 -1,500 Descending Atlanta Center
05:00PM 35.3792 -80.7961 218° Southwest 269 310 11,500 -1,560 Descending Atlanta Center
05:01PM 35.3156 -80.8419 210° Southwest 258 297 9,900 -1,260 Descending Atlanta Center
05:02PM 35.2447 -80.8369 177° South 249 287 9,000 -900 Descending Atlanta Center
05:03PM 35.1819 -80.8344 178° South 232 267 8,200 -1,200 Descending Atlanta Center
05:04PM 35.1150 -80.8269 175° South 238 274 6,700 -1,380 Descending Atlanta Center
05:05PM 35.0461 -80.8219 177° South 230 265 5,300 -1,320 Descending Atlanta Center
05:06PM 34.9792 -80.8144 175° South 224 258 4,000 -660 Descending Atlanta Center
05:07PM 34.9511 -80.8686 238° Southwest 200 230 4,000  Level Atlanta Center
05:08PM 34.9794 -80.9131 308° West 181 208 4,000  Level Atlanta Center
05:09PM 35.0297 -80.9239 350° North 182 209 4,000 -420 Level Atlanta Center
05:10PM 35.0842 -80.9294 355° North 181 208 3,200 -900 Descending Atlanta Center
05:11PM 35.1303 -80.9303 359° North 176 203 2,300 -900 Descending Atlanta Center
05:12PM 35.1700 -80.9339 356° North 145 167 1,500 -840 Descending Atlanta Center
05:14PM 35.2000 -80.9333 335° Northwest  Level FlightAware Approximate
05:21PM 35.2137 -80.9491 335° Northwest  Level Estimated